createdAt,value
2023-05-16T00:00:44.901Z,8.50
2023-05-16T00:03:26.821Z,6.73
2023-05-16T00:05:53.592Z,8.37
2023-05-16T00:08:19.688Z,8.13
2023-05-16T00:10:46.093Z,7.03
2023-05-16T00:13:12.933Z,8.00
2023-05-16T00:15:39.266Z,7.70
2023-05-16T00:18:05.396Z,8.93
2023-05-16T00:20:31.873Z,6.70
2023-05-16T00:23:00.954Z,6.00
2023-05-16T00:25:28.111Z,6.90
2023-05-16T00:27:54.190Z,6.17
2023-05-16T00:30:22.008Z,6.27
2023-05-16T00:32:48.162Z,8.10
2023-05-16T00:35:14.560Z,7.07
2023-05-16T00:37:41.676Z,9.70
2023-05-16T00:40:08.538Z,6.43
2023-05-16T00:42:50.728Z,7.17
2023-05-16T00:45:17.377Z,6.60
2023-05-16T00:47:43.476Z,6.97
2023-05-16T00:50:10.267Z,9.27
2023-05-16T00:52:36.502Z,5.17
2023-05-16T00:55:03.741Z,6.63
2023-05-16T00:57:30.205Z,5.57
2023-05-16T00:59:56.926Z,5.93
2023-05-16T01:02:27.633Z,5.93
2023-05-16T01:04:55.870Z,6.27
2023-05-16T01:07:23.029Z,9.53
2023-05-16T01:09:49.616Z,6.20
2023-05-16T01:12:27.379Z,6.57
2023-05-16T01:15:20.150Z,5.57
2023-05-16T01:17:55.420Z,9.43
2023-05-16T01:20:44.763Z,9.13
2023-05-16T01:23:27.054Z,5.40
2023-05-16T01:26:13.685Z,7.10
2023-05-16T01:28:41.047Z,6.57
2023-05-16T01:31:07.471Z,7.10
2023-05-16T01:33:33.568Z,7.47
2023-05-16T01:36:05.935Z,6.77
2023-05-16T01:38:45.326Z,5.83
2023-05-16T01:41:21.263Z,5.77
2023-05-16T01:43:50.847Z,7.20
2023-05-16T01:46:29.150Z,5.70
2023-05-16T01:49:05.423Z,7.10
2023-05-16T01:51:33.105Z,6.63
2023-05-16T01:54:05.710Z,7.77
2023-05-16T01:56:32.777Z,5.40
2023-05-16T01:59:00.933Z,5.37
2023-05-16T02:01:30.564Z,7.30
2023-05-16T02:03:58.134Z,5.57
2023-05-16T02:06:25.243Z,6.83
2023-05-16T02:08:51.793Z,5.63
2023-05-16T02:11:18.160Z,4.80
2023-05-16T02:13:44.273Z,7.13
2023-05-16T02:16:10.991Z,5.43
2023-05-16T02:18:38.423Z,5.70
2023-05-16T02:21:04.999Z,5.03
2023-05-16T02:23:31.456Z,6.27
2023-05-16T02:25:59.576Z,5.10
2023-05-16T02:28:25.757Z,5.50
2023-05-16T02:30:59.116Z,5.80
2023-05-16T02:33:26.856Z,5.37
2023-05-16T02:35:53.914Z,6.00
2023-05-16T02:38:20.476Z,6.90
2023-05-16T02:40:48.146Z,4.87
2023-05-16T02:43:14.250Z,13.33
2023-05-16T02:45:42.245Z,13.47
2023-05-16T02:48:08.832Z,8.93
2023-05-16T02:50:36.949Z,6.37
2023-05-16T02:53:03.034Z,8.03
2023-05-16T02:55:29.565Z,7.10
2023-05-16T02:57:56.297Z,6.23
2023-05-16T03:00:23.116Z,8.07
2023-05-16T03:02:49.463Z,7.97
2023-05-16T03:05:16.353Z,8.60
2023-05-16T03:07:42.413Z,8.30
2023-05-16T03:10:08.871Z,5.93
2023-05-16T03:12:35.099Z,9.03
2023-05-16T03:15:01.533Z,6.47
2023-05-16T03:17:28.092Z,11.23
2023-05-16T03:19:54.538Z,7.03
2023-05-16T03:22:20.706Z,5.70
2023-05-16T03:24:47.256Z,6.93
2023-05-16T03:27:13.822Z,7.50
2023-05-16T03:29:40.326Z,6.57
2023-05-16T03:32:06.749Z,7.23
2023-05-16T03:34:33.556Z,5.67
2023-05-16T03:36:59.756Z,5.63
2023-05-16T03:39:26.313Z,6.33
2023-05-16T03:41:55.498Z,7.20
2023-05-16T03:44:22.137Z,6.17
2023-05-16T03:46:50.609Z,7.13
2023-05-16T03:49:17.137Z,7.20
2023-05-16T03:51:43.204Z,8.87
2023-05-16T03:54:09.632Z,14.17
2023-05-16T03:56:36.161Z,5.47
2023-05-16T03:59:02.584Z,7.63
2023-05-16T04:01:29.107Z,7.70
2023-05-16T04:03:56.009Z,5.23
2023-05-16T04:06:22.380Z,5.20
2023-05-16T04:08:48.817Z,7.27
2023-05-16T04:11:14.930Z,5.30
2023-05-16T04:13:41.313Z,4.70
2023-05-16T04:16:07.438Z,4.83
2023-05-16T04:18:34.089Z,6.27
2023-05-16T04:21:00.409Z,5.30
2023-05-16T04:23:26.873Z,6.73
2023-05-16T04:25:53.376Z,6.83
2023-05-16T04:28:20.249Z,5.17
2023-05-16T04:30:46.953Z,5.37
2023-05-16T04:33:13.465Z,5.53
2023-05-16T04:35:39.910Z,6.73
2023-05-16T04:38:06.534Z,7.17
2023-05-16T04:40:33.226Z,7.23
2023-05-16T04:42:59.771Z,4.93
2023-05-16T04:45:26.014Z,5.30
2023-05-16T04:47:52.859Z,6.73
2023-05-16T04:50:19.218Z,6.57
2023-05-16T04:52:45.966Z,5.63
2023-05-16T04:55:12.281Z,6.80
2023-05-16T04:57:38.795Z,7.33
2023-05-16T05:00:11.359Z,7.00
2023-05-16T05:02:38.431Z,4.83
2023-05-16T05:05:05.964Z,7.77
2023-05-16T05:07:32.566Z,6.20
2023-05-16T05:10:05.909Z,6.33
2023-05-16T05:12:33.074Z,5.67
2023-05-16T05:14:59.397Z,7.73
2023-05-16T05:17:26.166Z,7.03
2023-05-16T05:19:52.412Z,6.13
2023-05-16T05:22:18.837Z,5.30
2023-05-16T05:24:45.710Z,5.37
2023-05-16T05:27:12.425Z,5.93
2023-05-16T05:29:39.784Z,6.33
2023-05-16T05:32:07.647Z,4.93
2023-05-16T05:34:33.832Z,6.37
2023-05-16T05:37:00.229Z,6.97
2023-05-16T05:39:26.396Z,5.67
2023-05-16T05:41:52.770Z,5.43
2023-05-16T05:44:18.855Z,6.03
2023-05-16T05:46:45.389Z,5.77
2023-05-16T05:49:11.733Z,6.47
2023-05-16T05:51:38.317Z,6.10
2023-05-16T05:54:04.399Z,5.00
2023-05-16T05:56:30.845Z,5.40
2023-05-16T05:58:56.999Z,5.10
2023-05-16T06:01:23.748Z,5.27
2023-05-16T06:03:50.558Z,6.30
2023-05-16T06:06:17.479Z,8.07
2023-05-16T06:08:43.572Z,6.70
2023-05-16T06:11:10.207Z,8.97
2023-05-16T06:13:36.355Z,4.80
2023-05-16T06:16:02.922Z,4.93
2023-05-16T06:18:29.208Z,5.53
2023-05-16T06:20:55.632Z,4.68
2023-05-16T06:23:21.755Z,5.07
2023-05-16T06:25:48.117Z,5.10
2023-05-16T06:28:14.244Z,5.32
2023-05-16T06:30:40.665Z,8.32
2023-05-16T06:33:06.822Z,6.72
2023-05-16T06:35:33.207Z,5.10
2023-05-16T06:37:59.262Z,7.15
2023-05-16T06:40:25.698Z,5.93
2023-05-16T06:42:51.878Z,7.75
2023-05-16T06:45:18.373Z,8.25
2023-05-16T06:47:44.550Z,6.35
2023-05-16T06:50:11.249Z,5.90
2023-05-16T06:52:38.323Z,4.80
2023-05-16T06:55:05.216Z,7.10
2023-05-16T06:57:31.576Z,4.90
2023-05-16T06:59:58.011Z,4.38
2023-05-16T07:02:24.312Z,4.57
2023-05-16T07:04:51.669Z,5.13
2023-05-16T07:07:17.912Z,6.38
2023-05-16T07:09:44.309Z,4.47
2023-05-16T07:12:11.036Z,5.05
2023-05-16T07:14:37.566Z,5.45
2023-05-16T07:17:04.076Z,4.53
2023-05-16T07:19:30.740Z,5.43
2023-05-16T07:21:56.958Z,4.43
2023-05-16T07:24:23.327Z,4.50
2023-05-16T07:26:49.528Z,6.30
2023-05-16T07:29:16.077Z,6.63
2023-05-16T07:31:42.309Z,4.25
2023-05-16T07:34:09.768Z,5.70
2023-05-16T07:36:36.274Z,9.48
2023-05-16T07:39:03.456Z,5.18
2023-05-16T07:41:30.511Z,4.75
2023-05-16T07:43:56.998Z,5.03
2023-05-16T07:46:23.313Z,4.55
2023-05-16T07:48:49.900Z,4.22
2023-05-16T07:51:16.222Z,6.35
2023-05-16T07:53:42.659Z,5.85
2023-05-16T07:56:08.964Z,6.78
2023-05-16T07:58:35.640Z,6.28
2023-05-16T08:01:02.234Z,4.22
2023-05-16T08:03:28.811Z,5.65
2023-05-16T08:05:55.364Z,4.20
2023-05-16T08:08:22.136Z,6.28
2023-05-16T08:10:48.391Z,6.45
2023-05-16T08:13:14.885Z,6.30
2023-05-16T08:15:41.865Z,4.53
2023-05-16T08:18:16.729Z,4.18
2023-05-16T08:20:43.618Z,6.78
2023-05-16T08:23:10.119Z,4.78
2023-05-16T08:25:36.366Z,3.80
2023-05-16T08:28:02.965Z,6.13
2023-05-16T08:30:29.224Z,3.72
2023-05-16T08:32:55.855Z,4.07
2023-05-16T08:35:22.029Z,5.90
2023-05-16T08:37:48.437Z,3.58
2023-05-16T08:40:15.585Z,4.57
2023-05-16T08:42:43.489Z,3.30
2023-05-16T08:45:12.224Z,6.10
2023-05-16T08:47:43.297Z,3.30
2023-05-16T08:50:10.052Z,3.08
2023-05-16T08:52:39.812Z,3.13
2023-05-16T08:55:11.021Z,3.28
2023-05-16T08:57:52.823Z,3.85
2023-05-16T09:00:20.058Z,3.53
2023-05-16T09:02:46.754Z,5.30
2023-05-16T09:05:15.299Z,7.78
2023-05-16T09:07:43.374Z,3.50
2023-05-16T09:10:11.129Z,5.82
2023-05-16T09:12:39.430Z,3.80
2023-05-16T09:15:08.476Z,4.80
2023-05-16T09:17:42.892Z,3.35
2023-05-16T09:20:18.281Z,3.40
2023-05-16T09:22:57.049Z,3.58
2023-05-16T09:27:57.892Z,3.55
2023-05-16T09:30:29.760Z,3.97
2023-05-16T09:32:56.683Z,5.07
2023-05-16T09:35:42.517Z,3.35
2023-05-16T09:38:17.052Z,4.47
2023-05-16T09:40:44.522Z,5.38
2023-05-16T09:43:15.538Z,3.08
2023-05-16T09:45:47.263Z,4.15
2023-05-16T09:48:15.158Z,5.40
2023-05-16T09:50:46.931Z,3.22
2023-05-16T09:53:13.618Z,6.40
2023-05-16T09:55:39.909Z,3.78
2023-05-16T09:58:06.285Z,4.70
2023-05-16T10:00:33.519Z,4.72
2023-05-16T10:03:04.329Z,11.00
2023-05-16T10:05:31.681Z,7.47
2023-05-16T10:07:58.303Z,7.38
2023-05-16T10:10:25.885Z,6.45
2023-05-16T10:12:52.405Z,7.32
2023-05-16T10:15:19.711Z,4.90
2023-05-16T10:17:51.828Z,6.35
2023-05-16T10:20:20.591Z,6.00
2023-05-16T10:22:50.316Z,8.50
2023-05-16T10:25:41.055Z,6.68
2023-05-16T10:28:08.500Z,6.53
2023-05-16T10:30:35.849Z,9.13
2023-05-16T10:33:03.868Z,9.45
2023-05-16T10:35:32.234Z,7.68
2023-05-16T10:37:59.952Z,8.00
2023-05-16T10:40:27.880Z,8.00
2023-05-16T10:42:59.616Z,6.88
2023-05-16T10:45:26.455Z,6.90
2023-05-16T10:48:01.312Z,7.30
2023-05-16T10:50:42.000Z,15.15
2023-05-16T10:53:29.619Z,11.85
2023-05-16T10:55:55.871Z,10.05
2023-05-16T10:58:38.057Z,9.70
2023-05-16T11:01:21.488Z,7.18
2023-05-16T11:03:57.123Z,8.15
2023-05-16T11:06:27.732Z,6.97
2023-05-16T11:09:10.305Z,7.90
2023-05-16T11:11:49.877Z,6.85
2023-05-16T11:14:31.956Z,6.88
2023-05-16T11:17:04.091Z,8.18
2023-05-16T11:19:53.833Z,6.88
2023-05-16T11:22:23.270Z,7.45
2023-05-16T11:24:59.482Z,6.93
2023-05-16T11:27:27.773Z,8.05
2023-05-16T11:30:00.966Z,6.65
2023-05-16T11:32:30.065Z,8.43
2023-05-16T11:34:57.761Z,6.15
2023-05-16T11:37:24.184Z,6.80
2023-05-16T11:39:51.305Z,7.78
2023-05-16T11:42:17.572Z,6.18
2023-05-16T11:44:45.109Z,6.55
2023-05-16T11:47:12.094Z,7.22
2023-05-16T11:49:38.925Z,6.28
2023-05-16T11:52:07.799Z,7.45
2023-05-16T11:54:34.910Z,8.43
2023-05-16T11:57:01.530Z,8.45
2023-05-16T11:59:28.396Z,6.68
2023-05-16T12:01:54.481Z,7.80
2023-05-16T12:04:21.749Z,9.43
2023-05-16T12:06:59.995Z,10.07
2023-05-16T12:09:27.408Z,11.40
2023-05-16T12:11:53.965Z,8.63
2023-05-16T12:14:20.999Z,8.95
2023-05-16T12:16:48.675Z,8.52
2023-05-16T12:19:15.864Z,8.45
2023-05-16T12:21:42.823Z,8.38
2023-05-16T12:24:12.153Z,12.15
2023-05-16T12:26:40.682Z,8.10
2023-05-16T12:29:07.665Z,8.77
2023-05-16T12:31:39.934Z,8.95
2023-05-16T12:34:23.096Z,8.55
2023-05-16T12:36:53.229Z,9.70
2023-05-16T12:39:20.423Z,9.25
2023-05-16T12:41:47.092Z,10.82
2023-05-16T12:44:17.089Z,10.82
2023-05-16T12:46:45.266Z,11.20
2023-05-16T12:49:12.881Z,12.65
2023-05-16T12:51:39.794Z,8.95
2023-05-16T12:54:11.219Z,10.52
2023-05-16T12:56:38.895Z,12.13
2023-05-16T12:59:05.603Z,10.32
2023-05-16T13:01:32.549Z,11.45
2023-05-16T13:03:59.173Z,9.52
2023-05-16T13:06:26.047Z,11.98
2023-05-16T13:08:52.531Z,8.38
2023-05-16T13:11:19.181Z,10.07
2023-05-16T13:13:45.827Z,13.25
2023-05-16T13:16:12.491Z,9.32
2023-05-16T13:18:39.235Z,12.93
2023-05-16T13:21:06.056Z,9.68
2023-05-16T13:23:32.708Z,14.60
2023-05-16T13:25:59.150Z,12.85
2023-05-16T13:28:26.131Z,10.65
2023-05-16T13:30:52.732Z,12.63
2023-05-16T13:33:19.493Z,15.68
2023-05-16T13:35:46.790Z,13.30
2023-05-16T13:38:15.245Z,11.57
2023-05-16T13:40:42.179Z,11.48
2023-05-16T13:43:08.677Z,12.93
2023-05-16T13:45:35.038Z,12.73
2023-05-16T13:48:01.486Z,13.90
2023-05-16T13:50:33.290Z,9.60
2023-05-16T13:53:00.432Z,12.35
2023-05-16T13:55:27.432Z,11.20
2023-05-16T13:57:54.222Z,13.02
2023-05-16T14:00:42.782Z,14.70
2023-05-16T14:03:07.275Z,11.65
2023-05-16T14:05:33.539Z,12.03
2023-05-16T14:08:00.057Z,12.90
2023-05-16T14:10:26.532Z,9.77
2023-05-16T14:12:53.298Z,12.37
2023-05-16T14:15:20.315Z,12.67
2023-05-16T14:17:46.864Z,10.67
2023-05-16T14:20:14.745Z,15.53
2023-05-16T14:22:41.588Z,12.83
2023-05-16T14:25:08.326Z,13.50
2023-05-16T14:27:35.013Z,16.13
2023-05-16T14:30:01.452Z,11.93
2023-05-16T14:32:28.449Z,16.03
2023-05-16T14:34:54.980Z,12.80
2023-05-16T14:37:21.460Z,10.90
2023-05-16T14:39:49.980Z,15.37
2023-05-16T14:42:17.445Z,14.27
2023-05-16T14:44:44.207Z,13.27
2023-05-16T14:47:11.195Z,14.00
2023-05-16T14:49:37.655Z,14.33
2023-05-16T14:52:05.570Z,15.40
2023-05-16T14:54:31.961Z,12.27
2023-05-16T14:56:59.456Z,12.70
2023-05-16T14:59:27.122Z,12.27
2023-05-16T15:01:54.322Z,14.87
2023-05-16T15:04:20.601Z,18.33
2023-05-16T15:06:47.061Z,11.97
2023-05-16T15:09:13.325Z,12.23
2023-05-16T15:11:40.184Z,11.83
2023-05-16T15:14:06.393Z,14.53
2023-05-16T15:16:32.970Z,17.40
2023-05-16T15:18:59.350Z,11.93
2023-05-16T15:21:26.526Z,11.93
2023-05-16T15:23:54.557Z,15.40
2023-05-16T15:26:22.217Z,14.27
2023-05-16T15:28:48.361Z,15.13
2023-05-16T15:31:14.897Z,14.63
2023-05-16T15:33:41.521Z,17.03
2023-05-16T15:36:08.095Z,15.03
2023-05-16T15:38:35.697Z,13.00
2023-05-16T15:41:15.862Z,15.90
2023-05-16T15:43:51.548Z,17.20
2023-05-16T15:46:18.060Z,14.63
2023-05-16T15:48:44.281Z,13.50
2023-05-16T15:51:12.446Z,14.97
2023-05-16T15:53:39.170Z,12.73
2023-05-16T15:56:06.402Z,16.30
2023-05-16T15:58:32.642Z,13.77
2023-05-16T16:00:59.349Z,14.10
2023-05-16T16:03:25.684Z,12.97
2023-05-16T16:05:52.870Z,14.80
2023-05-16T16:08:19.889Z,14.03
2023-05-16T16:10:46.668Z,12.73
2023-05-16T16:13:12.859Z,14.50
2023-05-16T16:15:41.468Z,15.33
2023-05-16T16:18:08.534Z,14.63
2023-05-16T16:20:35.456Z,18.17
2023-05-16T16:23:01.726Z,28.30
2023-05-16T16:25:28.532Z,16.67
2023-05-16T16:27:55.142Z,15.07
2023-05-16T16:30:21.644Z,15.63
2023-05-16T16:32:50.855Z,12.70
2023-05-16T16:35:17.399Z,17.43
2023-05-16T16:37:54.603Z,16.77
2023-05-16T16:40:31.319Z,15.87
2023-05-16T16:42:58.061Z,15.03
2023-05-16T16:45:24.808Z,17.40
2023-05-16T16:47:51.764Z,17.50
2023-05-16T16:50:18.473Z,19.40
2023-05-16T16:52:44.856Z,16.20
2023-05-16T16:55:12.480Z,17.20
2023-05-16T16:57:40.480Z,19.33
2023-05-16T17:00:08.258Z,14.47
2023-05-16T17:02:34.810Z,15.90
2023-05-16T17:05:04.409Z,17.47
2023-05-16T17:07:30.900Z,18.10
2023-05-16T17:09:57.578Z,18.47
2023-05-16T17:12:27.612Z,22.70
2023-05-16T17:14:56.553Z,18.13
2023-05-16T17:17:25.748Z,18.97
2023-05-16T17:19:52.609Z,18.67
2023-05-16T17:22:20.631Z,21.03
2023-05-16T17:24:47.281Z,20.53
2023-05-16T17:27:13.720Z,18.87
2023-05-16T17:29:40.316Z,24.83
2023-05-16T17:32:07.008Z,19.30
2023-05-16T17:34:33.818Z,23.00
2023-05-16T17:37:00.265Z,17.70
2023-05-16T17:39:27.442Z,21.10
2023-05-16T17:41:54.440Z,17.93
2023-05-16T17:44:21.337Z,19.33
2023-05-16T17:46:47.838Z,16.00
2023-05-16T17:49:14.659Z,18.40
2023-05-16T17:51:51.811Z,14.83
2023-05-16T17:54:20.246Z,18.57
2023-05-16T17:56:48.648Z,14.67
2023-05-16T17:59:15.781Z,15.57
2023-05-16T18:01:42.820Z,13.77
2023-05-16T18:04:10.310Z,13.73
2023-05-16T18:06:37.456Z,12.80
2023-05-16T18:09:09.457Z,12.03
2023-05-16T18:11:38.119Z,11.47
2023-05-16T18:14:04.937Z,20.73
2023-05-16T18:16:31.555Z,10.07
2023-05-16T18:18:58.540Z,10.50
2023-05-16T18:21:25.334Z,11.17
2023-05-16T18:23:52.148Z,9.37
2023-05-16T18:26:18.869Z,9.50
2023-05-16T18:28:46.565Z,8.40
2023-05-16T18:31:13.380Z,12.77
2023-05-16T18:33:40.333Z,10.93
2023-05-16T18:36:07.634Z,10.93
2023-05-16T18:38:34.614Z,10.63
2023-05-16T18:41:01.266Z,9.80
2023-05-16T18:43:28.537Z,11.97
2023-05-16T18:45:55.008Z,9.83
2023-05-16T18:48:21.817Z,12.50
2023-05-16T18:50:48.226Z,9.40
2023-05-16T18:53:15.018Z,11.93
2023-05-16T18:55:41.421Z,10.53
2023-05-16T18:58:08.314Z,12.47
2023-05-16T19:00:35.108Z,10.73
2023-05-16T19:03:01.908Z,13.33
2023-05-16T19:05:28.307Z,13.40
2023-05-16T19:07:55.336Z,11.80
2023-05-16T19:10:24.409Z,11.37
2023-05-16T19:12:51.306Z,10.33
2023-05-16T19:15:17.694Z,13.40
2023-05-16T19:17:44.548Z,11.03
2023-05-16T19:20:11.276Z,10.80
2023-05-16T19:22:38.111Z,12.03
2023-05-16T19:25:06.099Z,12.03
2023-05-16T19:27:32.858Z,12.33
2023-05-16T19:29:59.248Z,12.50
2023-05-16T19:32:29.905Z,10.37
2023-05-16T19:34:56.869Z,9.40
2023-05-16T19:37:23.719Z,11.53
2023-05-16T19:39:50.213Z,10.50
2023-05-16T19:42:16.844Z,12.27
2023-05-16T19:44:46.152Z,10.60
2023-05-16T19:47:12.890Z,12.73
2023-05-16T19:49:39.498Z,14.63
2023-05-16T19:52:08.454Z,9.80
2023-05-16T19:54:34.741Z,8.97
2023-05-16T19:57:01.304Z,11.87
2023-05-16T19:59:27.584Z,9.37
2023-05-16T20:01:54.086Z,11.93
2023-05-16T20:04:20.424Z,9.20
2023-05-16T20:06:47.176Z,9.50
2023-05-16T20:09:14.011Z,11.93
2023-05-16T20:11:40.840Z,8.13
2023-05-16T20:14:07.319Z,8.60
2023-05-16T20:16:34.025Z,7.50
2023-05-16T20:19:00.589Z,8.13
2023-05-16T20:21:27.791Z,10.93
2023-05-16T20:23:54.659Z,9.10
2023-05-16T20:26:22.007Z,9.93
2023-05-16T20:28:48.642Z,10.50
2023-05-16T20:31:15.414Z,10.53
2023-05-16T20:33:42.200Z,9.77
2023-05-16T20:36:09.389Z,12.07
2023-05-16T20:38:37.458Z,16.03
2023-05-16T20:41:04.269Z,16.90
2023-05-16T20:43:30.641Z,17.20
2023-05-16T20:45:57.400Z,14.50
2023-05-16T20:48:23.956Z,14.63
2023-05-16T20:50:51.815Z,14.67
2023-05-16T20:53:18.071Z,13.30
2023-05-16T20:55:44.756Z,12.57
2023-05-16T20:58:11.604Z,11.73
2023-05-16T21:00:38.572Z,13.17
2023-05-16T21:03:05.008Z,13.23
2023-05-16T21:05:33.080Z,12.57
2023-05-16T21:08:00.183Z,13.20
2023-05-16T21:10:26.832Z,11.67
2023-05-16T21:12:53.836Z,13.63
2023-05-16T21:15:22.900Z,11.30
2023-05-16T21:17:50.092Z,12.07
2023-05-16T21:20:16.847Z,12.70
2023-05-16T21:22:43.223Z,11.13
2023-05-16T21:25:10.008Z,16.10
2023-05-16T21:27:36.318Z,11.03
2023-05-16T21:30:03.359Z,14.63
2023-05-16T21:32:31.754Z,14.13
2023-05-16T21:35:00.373Z,14.17
2023-05-16T21:37:26.942Z,12.97
2023-05-16T21:39:53.442Z,12.67
2023-05-16T21:42:20.468Z,10.63
2023-05-16T21:44:47.048Z,12.00
2023-05-16T21:47:13.550Z,9.50
2023-05-16T21:49:39.999Z,12.63
2023-05-16T21:52:07.404Z,14.47
2023-05-16T21:54:34.222Z,12.27
2023-05-16T21:57:00.344Z,14.67
2023-05-16T21:59:26.760Z,10.63
2023-05-16T22:01:52.921Z,14.60
2023-05-16T22:04:19.356Z,15.60
2023-05-16T22:06:45.532Z,15.20
2023-05-16T22:09:12.315Z,15.17
2023-05-16T22:11:39.336Z,12.67
2023-05-16T22:14:05.804Z,14.97
2023-05-16T22:16:32.009Z,15.83
2023-05-16T22:18:58.412Z,14.47
2023-05-16T22:21:24.722Z,15.33
2023-05-16T22:23:51.162Z,14.43
2023-05-16T22:26:17.340Z,13.87
2023-05-16T22:28:44.159Z,10.30
2023-05-16T22:31:10.255Z,13.20
2023-05-16T22:33:36.713Z,12.30
2023-05-16T22:36:03.247Z,11.03
2023-05-16T22:38:30.881Z,13.60
2023-05-16T22:40:56.937Z,9.67
2023-05-16T22:43:23.602Z,10.80
2023-05-16T22:45:50.728Z,11.50
2023-05-16T22:48:17.140Z,11.10
2023-05-16T22:50:43.261Z,12.60
2023-05-16T22:53:09.692Z,12.07
2023-05-16T22:55:35.974Z,12.53
2023-05-16T22:58:02.467Z,11.50
2023-05-16T23:00:28.533Z,12.60
2023-05-16T23:02:55.059Z,9.57
2023-05-16T23:05:21.292Z,10.30
2023-05-16T23:07:50.352Z,12.10
2023-05-16T23:10:16.485Z,10.27
2023-05-16T23:12:42.868Z,15.13
2023-05-16T23:15:09.623Z,20.27
2023-05-16T23:17:39.407Z,15.93
2023-05-16T23:20:06.344Z,15.53
2023-05-16T23:22:32.935Z,15.77
2023-05-16T23:24:59.292Z,17.70
2023-05-16T23:27:25.761Z,15.80
2023-05-16T23:29:52.209Z,16.77
2023-05-16T23:32:18.850Z,13.77
2023-05-16T23:34:45.192Z,14.17
2023-05-16T23:37:11.688Z,14.90
2023-05-16T23:39:37.827Z,14.03
2023-05-16T23:42:04.433Z,11.37
2023-05-16T23:44:30.940Z,9.33
2023-05-16T23:46:57.388Z,10.93
2023-05-16T23:49:23.463Z,10.37
2023-05-16T23:51:57.429Z,10.50
2023-05-16T23:54:25.386Z,12.33
2023-05-16T23:56:52.165Z,11.00
2023-05-16T23:59:18.351Z,11.97
